Time;durP1;ratioP1;P1;durP2;ratioP2;P2;SDS_P1;SDS_P2;PMS_P1;PMS_P2;Temp;Humidity;BMP_temperature;BMP_pressure;BME280_temperature;BME280_humidity;BME280_pressure;Samples;Min_cycle;Max_cycle;Signal;HPM_P1;HPM_P2
2022/04/13 00:00:56;;;;;;;14.48;10.60;;;13.40;73.30;;;;;;5051504;28;20029;-65
2022/04/13 00:03:22;;;;;;;19.33;11.98;;;13.30;73.40;;;;;;5050612;28;20490;-65
2022/04/13 00:05:48;;;;;;;19.67;11.45;;;13.30;73.40;;;;;;5051337;28;20116;-65
2022/04/13 00:08:14;;;;;;;18.08;11.73;;;13.30;73.80;;;;;;5051287;28;20515;-65
2022/04/13 00:10:40;;;;;;;17.40;11.30;;;13.20;74.00;;;;;;5051048;28;20053;-65
2022/04/13 00:13:07;;;;;;;15.98;11.52;;;13.20;73.90;;;;;;5050924;28;20045;-66
2022/04/13 00:15:33;;;;;;;17.15;11.48;;;13.20;74.00;;;;;;5050505;28;20700;-65
2022/04/13 00:17:58;;;;;;;17.10;11.77;;;13.20;74.00;;;;;;5050437;28;20127;-65
2022/04/13 00:20:24;;;;;;;17.90;12.18;;;13.20;74.10;;;;;;5051098;28;20051;-65
2022/04/13 00:22:49;;;;;;;21.60;12.82;;;13.10;74.20;;;;;;5050654;28;20132;-66
2022/04/13 00:25:15;;;;;;;20.05;12.27;;;13.10;74.30;;;;;;5050202;28;20049;-65
2022/04/13 00:27:40;;;;;;;17.65;12.30;;;13.10;74.50;;;;;;5051217;28;20408;-65
2022/04/13 00:30:07;;;;;;;17.40;12.90;;;13.10;74.40;;;;;;5050866;28;20450;-65
2022/04/13 00:32:35;;;;;;;20.65;12.93;;;13.10;74.50;;;;;;5050816;28;20650;-65
2022/04/13 00:35:04;;;;;;;18.65;12.90;;;13.10;74.60;;;;;;5050492;28;20073;-65
2022/04/13 00:37:30;;;;;;;20.52;13.40;;;13.10;74.70;;;;;;5050435;28;20033;-65
2022/04/13 00:39:56;;;;;;;16.83;12.90;;;13.10;74.80;;;;;;5050316;28;20037;-66
2022/04/13 00:42:21;;;;;;;21.95;13.02;;;13.00;74.90;;;;;;5050589;28;20041;-66
2022/04/13 00:44:47;;;;;;;18.55;11.98;;;13.00;75.00;;;;;;5050021;28;20087;-65
2022/04/13 00:47:13;;;;;;;18.77;12.30;;;12.90;75.00;;;;;;5050293;28;20048;-65
2022/04/13 00:49:40;;;;;;;23.80;11.82;;;12.90;75.20;;;;;;5050329;28;20044;-66
2022/04/13 00:52:06;;;;;;;16.83;12.32;;;12.90;75.40;;;;;;5050360;28;20049;-65
2022/04/13 00:54:33;;;;;;;17.63;11.88;;;12.90;75.60;;;;;;5050168;28;20445;-65
2022/04/13 00:57:07;;;;;;;24.02;13.90;;;12.80;75.90;;;;;;5049658;28;20128;-65
2022/04/13 00:59:36;;;;;;;20.15;13.32;;;12.80;76.10;;;;;;5050559;28;20386;-66
2022/04/13 01:02:02;;;;;;;21.98;14.43;;;12.70;76.30;;;;;;5049821;28;20040;-65
2022/04/13 01:04:31;;;;;;;20.92;14.63;;;12.70;76.40;;;;;;5050171;28;20064;-65
2022/04/13 01:06:56;;;;;;;20.55;14.07;;;12.60;76.40;;;;;;5049540;28;20124;-66
2022/04/13 01:09:25;;;;;;;25.08;14.60;;;12.60;76.50;;;;;;5047201;28;20128;-65
2022/04/13 01:11:50;;;;;;;24.52;15.75;;;12.60;76.40;;;;;;5049573;28;20559;-65
2022/04/13 01:14:16;;;;;;;24.60;16.85;;;12.60;76.50;;;;;;5049303;28;20233;-65
2022/04/13 01:16:42;;;;;;;28.10;16.75;;;12.60;76.60;;;;;;5049982;28;20041;-65
2022/04/13 01:19:08;;;;;;;26.23;16.52;;;12.60;76.60;;;;;;5048496;28;20061;-65
2022/04/13 01:21:59;;;;;;;26.00;16.05;;;12.60;76.50;;;;;;5050229;28;20514;-65
2022/04/13 01:24:26;;;;;;;25.30;15.45;;;12.60;76.50;;;;;;5049722;28;20513;-65
2022/04/13 01:26:51;;;;;;;26.02;16.27;;;12.60;76.50;;;;;;5049353;28;20422;-66
2022/04/13 01:29:17;;;;;;;23.45;16.33;;;12.60;76.60;;;;;;5049892;28;20053;-65
2022/04/13 01:31:44;;;;;;;27.27;18.23;;;12.60;76.80;;;;;;5049090;28;20040;-65
2022/04/13 01:34:10;;;;;;;23.23;16.02;;;12.60;76.90;;;;;;5050080;28;20076;-65
2022/04/13 01:36:36;;;;;;;22.58;17.67;;;12.60;76.80;;;;;;5049728;28;20076;-65
2022/04/13 01:39:06;;;;;;;26.63;16.75;;;12.60;77.10;;;;;;5049682;28;20428;-65
2022/04/13 01:41:32;;;;;;;26.27;18.08;;;12.60;76.90;;;;;;5048679;28;20049;-65
2022/04/13 01:43:58;;;;;;;27.00;18.70;;;12.60;76.90;;;;;;5048893;28;20040;-65
2022/04/13 01:46:24;;;;;;;27.83;18.52;;;12.50;77.40;;;;;;5049804;28;20048;-65
2022/04/13 01:48:50;;;;;;;31.88;19.65;;;12.50;77.30;;;;;;5049524;28;20087;-66
2022/04/13 01:51:17;;;;;;;29.80;19.83;;;12.60;77.30;;;;;;5048937;28;20044;-65
2022/04/13 01:53:43;;;;;;;30.35;18.05;;;12.50;77.40;;;;;;5049225;28;20060;-65
2022/04/13 01:56:09;;;;;;;27.73;19.27;;;12.50;77.60;;;;;;5049384;28;20155;-66
2022/04/13 01:58:34;;;;;;;26.92;19.83;;;12.50;77.70;;;;;;5048952;28;20075;-65
2022/04/13 02:01:00;;;;;;;29.10;18.77;;;12.50;77.70;;;;;;5048846;28;20043;-65
2022/04/13 02:03:26;;;;;;;34.10;19.98;;;12.40;78.00;;;;;;5049053;28;20045;-66
2022/04/13 02:05:55;;;;;;;28.23;17.65;;;12.40;77.90;;;;;;5047075;28;20504;-66
2022/04/13 02:08:21;;;;;;;28.48;18.65;;;12.50;77.90;;;;;;5049253;28;20045;-65
2022/04/13 02:10:47;;;;;;;29.20;19.08;;;12.40;77.90;;;;;;5048704;28;20057;-66
2022/04/13 02:13:13;;;;;;;24.70;18.67;;;12.40;77.90;;;;;;5048324;28;20512;-66
2022/04/13 02:15:39;;;;;;;26.25;17.67;;;12.40;78.10;;;;;;5048651;28;20041;-65
2022/04/13 02:18:05;;;;;;;29.50;18.50;;;12.40;78.00;;;;;;5048697;28;20041;-65
2022/04/13 02:20:32;;;;;;;30.10;19.38;;;12.40;78.10;;;;;;5048311;28;20036;-66
2022/04/13 02:22:57;;;;;;;26.40;19.50;;;12.40;78.10;;;;;;5048983;28;20052;-65
2022/04/13 02:25:23;;;;;;;26.67;18.52;;;12.40;78.20;;;;;;5047514;28;20085;-66
2022/04/13 02:27:48;;;;;;;26.48;17.90;;;12.40;78.20;;;;;;5048620;28;20048;-66
2022/04/13 02:30:15;;;;;;;25.13;17.23;;;12.40;78.20;;;;;;5048016;28;20478;-65
2022/04/13 02:32:45;;;;;;;23.38;17.25;;;12.40;78.50;;;;;;5048780;28;20414;-66
2022/04/13 02:35:12;;;;;;;31.02;18.92;;;12.40;78.50;;;;;;5048335;28;20087;-66
2022/04/13 02:37:38;;;;;;;23.10;17.05;;;12.40;78.60;;;;;;5048403;28;20052;-65
2022/04/13 02:40:06;;;;;;;25.25;17.48;;;12.40;78.50;;;;;;5048602;28;20041;-66
2022/04/13 02:42:35;;;;;;;22.30;16.48;;;12.40;78.50;;;;;;5048336;28;20563;-65
2022/04/13 02:45:02;;;;;;;25.15;16.58;;;12.50;78.50;;;;;;5048398;28;20492;-65
2022/04/13 02:47:27;;;;;;;25.65;18.75;;;12.40;78.50;;;;;;5047923;28;20045;-66
2022/04/13 02:49:55;;;;;;;24.27;17.88;;;12.40;78.50;;;;;;5048274;28;20443;-66
2022/04/13 02:52:21;;;;;;;22.45;16.70;;;12.40;78.60;;;;;;5048628;28;20041;-66
2022/04/13 02:54:47;;;;;;;27.45;17.40;;;12.40;78.70;;;;;;5047385;28;20087;-66
2022/04/13 02:57:12;;;;;;;23.90;18.30;;;12.30;78.70;;;;;;5048472;28;20772;-66
2022/04/13 02:59:38;;;;;;;24.95;16.33;;;12.30;78.70;;;;;;5047901;28;20041;-65
2022/04/13 03:02:04;;;;;;;21.50;16.98;;;12.30;78.80;;;;;;5048672;28;20595;-65
2022/04/13 03:04:32;;;;;;;26.15;17.40;;;12.30;78.90;;;;;;5048802;28;20486;-65
2022/04/13 03:06:58;;;;;;;27.70;18.48;;;12.30;78.90;;;;;;5048276;28;20045;-64
2022/04/13 03:09:24;;;;;;;23.98;17.38;;;12.20;79.00;;;;;;5048604;28;20566;-64
2022/04/13 03:11:50;;;;;;;22.35;15.27;;;12.30;79.10;;;;;;5047777;28;20099;-65
2022/04/13 03:14:15;;;;;;;24.23;18.23;;;12.20;79.30;;;;;;5047665;28;20460;-65
2022/04/13 03:16:41;;;;;;;27.33;18.83;;;12.20;79.40;;;;;;5048060;28;20056;-65
2022/04/13 03:19:07;;;;;;;22.27;16.60;;;12.20;79.50;;;;;;5048643;28;20049;-66
2022/04/13 03:21:32;;;;;;;24.60;17.50;;;12.20;79.60;;;;;;5048294;28;20639;-66
2022/04/13 03:23:58;;;;;;;28.27;18.70;;;12.10;79.60;;;;;;5047474;28;20444;-65
2022/04/13 03:26:23;;;;;;;23.88;17.63;;;12.10;79.70;;;;;;5048055;28;20045;-65
2022/04/13 03:28:49;;;;;;;26.73;16.58;;;12.10;79.70;;;;;;5047824;28;20037;-65
2022/04/13 03:31:16;;;;;;;20.52;17.67;;;12.10;79.70;;;;;;5048067;28;20041;-66
2022/04/13 03:33:42;;;;;;;25.17;17.10;;;12.10;79.70;;;;;;5031437;28;20040;-65
2022/04/13 03:36:08;;;;;;;28.60;18.20;;;12.00;79.90;;;;;;5049888;28;20052;-65
2022/04/13 03:38:34;;;;;;;25.45;18.92;;;12.00;79.90;;;;;;5051568;28;20044;-65
2022/04/13 03:41:02;;;;;;;26.02;18.85;;;11.90;80.50;;;;;;5051719;28;20049;-64
2022/04/13 03:43:28;;;;;;;30.73;19.38;;;11.90;80.40;;;;;;5051143;28;20037;-65
2022/04/13 03:45:54;;;;;;;30.77;20.23;;;12.00;80.40;;;;;;5051016;28;20047;-65
2022/04/13 03:48:20;;;;;;;24.33;19.33;;;12.00;80.50;;;;;;5051398;28;20481;-65
2022/04/13 03:50:46;;;;;;;30.08;19.90;;;12.00;80.50;;;;;;5051673;28;20048;-65
2022/04/13 03:53:12;;;;;;;25.15;19.35;;;12.10;80.50;;;;;;5051615;28;20045;-65
2022/04/13 03:55:37;;;;;;;30.42;20.48;;;12.10;80.60;;;;;;5051434;28;20041;-65
2022/04/13 03:58:03;;;;;;;30.48;21.08;;;12.10;80.70;;;;;;5050763;28;20048;-65
2022/04/13 04:00:29;;;;;;;26.48;20.70;;;12.10;80.70;;;;;;5057656;28;20120;-66
2022/04/13 04:02:54;;;;;;;29.17;21.15;;;12.10;80.70;;;;;;5056505;28;20405;-65
2022/04/13 04:05:20;;;;;;;26.67;19.95;;;12.10;80.70;;;;;;5056419;28;20033;-66
2022/04/13 04:07:46;;;;;;;26.33;19.58;;;12.10;80.80;;;;;;5051462;28;20165;-66
2022/04/13 04:10:11;;;;;;;33.83;21.48;;;12.10;80.80;;;;;;5052155;28;20060;-65
2022/04/13 04:12:39;;;;;;;26.25;20.10;;;12.10;80.90;;;;;;5052338;28;20052;-65
2022/04/13 04:15:06;;;;;;;25.90;20.40;;;12.10;80.80;;;;;;5067690;28;20083;-66
2022/04/13 04:17:31;;;;;;;28.42;20.10;;;12.10;80.90;;;;;;5066827;28;20048;-65
2022/04/13 04:19:57;;;;;;;26.13;20.10;;;12.10;80.90;;;;;;5057066;28;20094;-65
2022/04/13 04:22:24;;;;;;;28.23;20.30;;;12.10;80.90;;;;;;5071254;28;20515;-66
2022/04/13 04:24:50;;;;;;;27.77;19.45;;;12.10;81.00;;;;;;5069342;28;20059;-65
2022/04/13 04:27:15;;;;;;;27.58;20.40;;;12.10;81.00;;;;;;5062960;28;20033;-66
2022/04/13 04:29:41;;;;;;;28.20;19.52;;;12.10;80.90;;;;;;5054851;28;20032;-66
2022/04/13 04:32:07;;;;;;;28.42;20.00;;;12.10;81.00;;;;;;5058962;28;20064;-66
2022/04/13 04:34:33;;;;;;;30.67;19.95;;;12.10;81.10;;;;;;5058795;28;20474;-65
2022/04/13 04:36:59;;;;;;;25.58;19.08;;;12.10;81.20;;;;;;5060646;28;20048;-66
2022/04/13 04:39:25;;;;;;;24.38;20.38;;;12.10;81.20;;;;;;5069962;28;20046;-65
2022/04/13 04:41:51;;;;;;;30.00;20.92;;;12.10;81.20;;;;;;5051521;28;20611;-65
2022/04/13 04:44:17;;;;;;;27.38;21.17;;;12.10;81.30;;;;;;5053203;28;20080;-66
2022/04/13 04:46:42;;;;;;;33.70;20.13;;;12.10;81.40;;;;;;5052625;28;20044;-66
2022/04/13 04:49:08;;;;;;;29.45;19.45;;;12.10;81.50;;;;;;5053311;28;20052;-65
2022/04/13 04:51:34;;;;;;;30.65;20.48;;;12.10;81.70;;;;;;5058799;28;20041;-66
2022/04/13 04:54:00;;;;;;;34.67;21.30;;;12.10;81.70;;;;;;5055710;28;20374;-66
2022/04/13 04:56:26;;;;;;;27.88;20.77;;;12.10;81.70;;;;;;5069489;28;20410;-66
2022/04/13 04:58:52;;;;;;;26.27;21.90;;;12.10;81.80;;;;;;5054435;28;20057;-66
2022/04/13 05:01:18;;;;;;;36.78;22.77;;;12.00;82.00;;;;;;5050089;28;20037;-65
2022/04/13 05:03:48;;;;;;;30.08;21.70;;;12.10;82.00;;;;;;5056764;28;20115;-65
2022/04/13 05:06:17;;;;;;;26.55;21.08;;;12.00;82.40;;;;;;5068126;28;20416;-66
2022/04/13 05:08:42;;;;;;;29.98;21.50;;;12.00;82.30;;;;;;5069970;28;20115;-65
2022/04/13 05:11:08;;;;;;;28.13;21.10;;;12.00;82.50;;;;;;5049644;28;20172;-65
2022/04/13 05:13:34;;;;;;;34.00;21.25;;;12.00;82.60;;;;;;5059734;28;20040;-65
2022/04/13 05:16:00;;;;;;;29.05;21.13;;;12.00;82.40;;;;;;5066130;28;20079;-65
2022/04/13 05:18:25;;;;;;;26.88;21.42;;;12.00;82.50;;;;;;5060702;28;20083;-65
2022/04/13 05:20:52;;;;;;;29.35;20.98;;;12.00;82.80;;;;;;5065197;28;20045;-66
2022/04/13 05:23:18;;;;;;;33.67;21.20;;;12.00;82.80;;;;;;5049954;28;20128;-65
2022/04/13 05:25:46;;;;;;;32.50;21.92;;;12.10;82.80;;;;;;5050068;28;20120;-66
2022/04/13 05:28:12;;;;;;;36.08;22.05;;;12.00;83.10;;;;;;5040908;28;20561;-65
2022/04/13 05:30:37;;;;;;;26.23;20.13;;;12.00;82.90;;;;;;5057979;28;20068;-66
2022/04/13 05:33:03;;;;;;;35.95;21.83;;;12.00;82.90;;;;;;5068591;28;20044;-66
2022/04/13 05:35:29;;;;;;;29.80;21.20;;;12.10;82.90;;;;;;5061780;28;20036;-66
2022/04/13 05:37:55;;;;;;;28.25;20.67;;;12.10;83.00;;;;;;5050295;28;20068;-66
2022/04/13 05:40:23;;;;;;;28.55;20.40;;;12.00;83.40;;;;;;5050545;28;20041;-66
2022/04/13 05:42:50;;;;;;;26.33;20.40;;;12.10;83.40;;;;;;5050985;28;20443;-66
2022/04/13 05:45:16;;;;;;;29.20;21.42;;;12.10;83.50;;;;;;5054082;28;20084;-66
2022/04/13 05:47:42;;;;;;;28.02;21.45;;;12.10;83.50;;;;;;5050455;28;20053;-66
2022/04/13 05:50:09;;;;;;;31.92;22.90;;;12.10;83.40;;;;;;5050876;28;20040;-66
2022/04/13 05:52:35;;;;;;;27.50;20.65;;;12.10;83.60;;;;;;5058399;28;20111;-67
2022/04/13 05:55:01;;;;;;;30.05;22.15;;;12.10;83.50;;;;;;5060168;28;20106;-66
2022/04/13 05:57:27;;;;;;;31.90;21.58;;;12.10;83.60;;;;;;5049233;28;20033;-66
2022/04/13 05:59:53;;;;;;;31.08;22.00;;;12.10;83.50;;;;;;5054104;28;20045;-66
2022/04/13 06:02:19;;;;;;;40.35;22.30;;;12.10;83.60;;;;;;5055372;28;20144;-66
2022/04/13 06:04:45;;;;;;;31.27;22.33;;;12.10;83.60;;;;;;5051405;28;20048;-66
2022/04/13 06:07:11;;;;;;;28.52;22.50;;;12.10;83.70;;;;;;5049115;28;20405;-65
2022/04/13 06:09:37;;;;;;;29.85;19.45;;;12.10;83.80;;;;;;5048629;28;20040;-66
2022/04/13 06:12:03;;;;;;;33.88;23.35;;;12.10;84.30;;;;;;5048855;28;20049;-64
2022/04/13 06:14:28;;;;;;;24.27;20.33;;;12.20;84.00;;;;;;5048173;28;20041;-64
2022/04/13 06:16:54;;;;;;;28.30;21.42;;;12.20;83.90;;;;;;5048118;28;20099;-66
2022/04/13 06:19:19;;;;;;;31.27;23.35;;;12.20;83.90;;;;;;5047886;28;20128;-65
2022/04/13 06:21:45;;;;;;;18.88;14.70;;;12.30;83.90;;;;;;5048785;28;20045;-66
2022/04/13 06:24:11;;;;;;;18.77;12.75;;;12.30;83.90;;;;;;5048005;28;20569;-66
2022/04/13 06:26:37;;;;;;;18.10;14.60;;;12.40;83.90;;;;;;5047627;28;20068;-65
2022/04/13 06:29:03;;;;;;;24.20;17.60;;;12.60;83.40;;;;;;5048323;28;20095;-66
2022/04/13 06:31:29;;;;;;;27.00;19.33;;;12.60;82.90;;;;;;5047546;28;20041;-65
2022/04/13 06:33:54;;;;;;;27.90;18.73;;;12.70;82.70;;;;;;5046762;28;20051;-65
2022/04/13 06:36:20;;;;;;;33.50;20.48;;;12.70;82.80;;;;;;5048461;28;20057;-66
2022/04/13 06:38:46;;;;;;;24.95;19.65;;;12.70;82.80;;;;;;5048399;28;20084;-65
2022/04/13 06:41:12;;;;;;;25.25;18.92;;;12.70;82.80;;;;;;5048001;28;20115;-65
2022/04/13 06:43:39;;;;;;;28.55;19.25;;;12.60;83.20;;;;;;5048428;28;20041;-65
2022/04/13 06:46:05;;;;;;;27.20;18.13;;;12.60;83.50;;;;;;5048234;28;20077;-65
2022/04/13 06:48:31;;;;;;;30.10;19.25;;;12.60;83.70;;;;;;5048464;28;20120;-65
2022/04/13 06:50:57;;;;;;;25.48;19.35;;;12.60;83.50;;;;;;5046570;28;20124;-65
2022/04/13 06:53:23;;;;;;;24.63;19.10;;;12.60;83.70;;;;;;5048792;28;20052;-65
2022/04/13 06:55:49;;;;;;;32.08;19.40;;;12.60;83.90;;;;;;5048291;28;20116;-64
2022/04/13 06:58:15;;;;;;;26.35;20.70;;;12.60;83.80;;;;;;5047350;28;20049;-64
2022/04/13 07:00:41;;;;;;;23.90;19.17;;;12.70;83.80;;;;;;5048260;28;20049;-65
2022/04/13 07:03:06;;;;;;;21.63;19.08;;;12.70;84.20;;;;;;5048383;28;20094;-65
2022/04/13 07:05:32;;;;;;;30.48;20.98;;;12.70;84.10;;;;;;5048511;28;20102;-65
2022/04/13 07:07:59;;;;;;;29.58;19.35;;;12.70;84.10;;;;;;5047504;28;20048;-65
2022/04/13 07:10:28;;;;;;;23.40;19.02;;;12.70;84.60;;;;;;5049047;28;20057;-65
2022/04/13 07:12:54;;;;;;;28.40;18.73;;;12.80;84.80;;;;;;5052447;28;20486;-65
2022/04/13 07:15:20;;;;;;;29.52;20.77;;;12.80;84.60;;;;;;5051097;28;20049;-65
2022/04/13 07:17:46;;;;;;;31.20;18.90;;;12.90;84.50;;;;;;5052496;28;20044;-65
2022/04/13 07:20:13;;;;;;;26.23;20.02;;;12.90;84.40;;;;;;5051938;28;20079;-65
2022/04/13 07:22:42;;;;;;;26.50;20.73;;;13.10;84.40;;;;;;5052360;28;20079;-65
2022/04/13 07:25:08;;;;;;;24.63;20.60;;;13.10;83.90;;;;;;5052272;28;20468;-64
2022/04/13 07:27:33;;;;;;;29.85;19.48;;;13.20;83.90;;;;;;5052209;28;20041;-65
2022/04/13 07:29:59;;;;;;;27.13;21.08;;;13.30;83.80;;;;;;5051644;28;20048;-65
2022/04/13 07:32:24;;;;;;;22.52;20.10;;;13.30;83.70;;;;;;5051916;28;20537;-65
2022/04/13 07:34:50;;;;;;;28.92;18.80;;;13.40;83.70;;;;;;5052006;28;20055;-65
2022/04/13 07:37:15;;;;;;;29.08;18.52;;;13.40;83.70;;;;;;5052028;28;20048;-64
2022/04/13 07:39:41;;;;;;;27.05;18.20;;;13.60;83.60;;;;;;5051218;28;20079;-65
2022/04/13 07:42:07;;;;;;;22.88;19.25;;;13.60;83.40;;;;;;5051979;28;20063;-65
2022/04/13 07:44:32;;;;;;;30.80;19.08;;;13.70;83.70;;;;;;5051926;28;20087;-65
2022/04/13 07:46:58;;;;;;;29.30;18.45;;;13.80;83.60;;;;;;5051443;28;20029;-65
2022/04/13 07:49:24;;;;;;;24.40;17.95;;;13.90;83.20;;;;;;5051826;28;20051;-65
2022/04/13 07:51:49;;;;;;;24.38;17.52;;;13.90;83.00;;;;;;5050689;28;20524;-65
2022/04/13 07:54:15;;;;;;;22.60;17.65;;;13.90;82.60;;;;;;5051091;28;20052;-65
2022/04/13 07:56:40;;;;;;;26.25;16.73;;;13.90;82.60;;;;;;5050655;28;20128;-65
2022/04/13 07:59:06;;;;;;;25.17;18.95;;;14.00;82.60;;;;;;5051423;28;20045;-65
2022/04/13 08:01:31;;;;;;;24.05;16.90;;;14.10;82.20;;;;;;5051064;28;20077;-65
2022/04/13 08:03:57;;;;;;;23.50;17.40;;;14.10;82.10;;;;;;5047345;28;20132;-65
2022/04/13 08:06:22;;;;;;;26.27;17.40;;;14.20;81.80;;;;;;5050726;28;20037;-65
2022/04/13 08:08:48;;;;;;;26.33;17.00;;;14.20;81.80;;;;;;5050576;28;20065;-64
2022/04/13 08:11:14;;;;;;;25.63;18.75;;;14.30;81.60;;;;;;5051013;28;20061;-64
2022/04/13 08:13:39;;;;;;;27.70;17.30;;;14.20;81.50;;;;;;5051138;28;20476;-64
2022/04/13 08:16:05;;;;;;;24.33;16.73;;;14.10;81.60;;;;;;5050359;28;20045;-64
2022/04/13 08:18:31;;;;;;;26.00;16.17;;;14.10;81.50;;;;;;5050629;28;20462;-63
2022/04/13 08:20:56;;;;;;;24.13;17.42;;;14.10;81.50;;;;;;5050971;28;20124;-64
2022/04/13 08:23:22;;;;;;;26.63;16.85;;;14.00;81.80;;;;;;5049334;28;20037;-64
2022/04/13 08:25:48;;;;;;;26.65;17.02;;;14.10;81.70;;;;;;5050861;28;20097;-65
2022/04/13 08:28:13;;;;;;;27.13;18.02;;;14.10;81.60;;;;;;5051197;28;20037;-65
2022/04/13 08:30:39;;;;;;;22.48;16.05;;;14.10;81.60;;;;;;5032490;28;20529;-65
2022/04/13 08:33:04;;;;;;;26.67;16.85;;;14.20;81.80;;;;;;5030899;28;20406;-65
2022/04/13 08:35:30;;;;;;;27.58;17.77;;;14.20;81.50;;;;;;5030339;28;20155;-66
2022/04/13 08:37:55;;;;;;;18.27;13.68;;;14.30;81.50;;;;;;5030588;28;20464;-65
2022/04/13 08:40:22;;;;;;;19.15;13.82;;;14.30;81.10;;;;;;5031221;28;20049;-65
2022/04/13 08:43:09;;;;;;;20.55;13.27;;;14.40;81.00;;;;;;5030883;28;20045;-65
2022/04/13 08:45:42;;;;;;;24.52;15.40;;;14.50;80.90;;;;;;5061280;28;20101;-65
2022/04/13 08:48:11;;;;;;;19.33;13.75;;;14.60;80.70;;;;;;5050355;28;20045;-64
2022/04/13 08:50:37;;;;;;;21.67;13.93;;;14.60;80.40;;;;;;5050684;28;20045;-65
2022/04/13 08:53:09;;;;;;;22.02;13.75;;;14.60;80.20;;;;;;5050450;28;20295;-65
2022/04/13 08:55:37;;;;;;;22.20;13.35;;;14.70;80.10;;;;;;5050151;28;20494;-65
2022/04/13 08:58:12;;;;;;;25.60;14.00;;;14.70;79.80;;;;;;5049988;28;20040;-65
2022/04/13 09:00:43;;;;;;;23.10;14.35;;;14.70;79.90;;;;;;5049947;28;20052;-65
2022/04/13 09:03:31;;;;;;;18.58;14.02;;;14.80;80.00;;;;;;5050142;28;20158;-65
2022/04/13 09:05:58;;;;;;;21.00;12.25;;;14.90;79.60;;;;;;5049920;28;20048;-65
2022/04/13 09:08:39;;;;;;;20.65;12.90;;;14.90;79.60;;;;;;5050158;28;20056;-65
2022/04/13 09:11:05;;;;;;;22.53;12.87;;;15.00;79.30;;;;;;5050280;28;20059;-66
2022/04/13 09:13:34;;;;;;;16.33;12.30;;;15.10;78.90;;;;;;5049311;28;20059;-65
2022/04/13 09:16:01;;;;;;;18.85;10.90;;;15.10;78.60;;;;;;5049479;28;20040;-66
2022/04/13 09:18:27;;;;;;;19.88;11.70;;;15.10;78.10;;;;;;5050096;28;20099;-66
2022/04/13 09:20:53;;;;;;;14.90;11.15;;;15.10;78.20;;;;;;5050073;28;20072;-65
2022/04/13 09:23:21;;;;;;;19.05;11.88;;;15.20;78.00;;;;;;5050149;28;20052;-64
2022/04/13 09:25:51;;;;;;;20.33;10.98;;;15.30;77.90;;;;;;5049488;28;20382;-66
2022/04/13 09:28:16;;;;;;;21.85;11.05;;;15.30;77.90;;;;;;5049504;28;20041;-65
2022/04/13 09:30:42;;;;;;;20.27;11.18;;;15.40;77.40;;;;;;5049955;28;20056;-66
2022/04/13 09:33:08;;;;;;;18.88;10.50;;;15.40;77.10;;;;;;5049079;28;20083;-65
2022/04/13 09:35:35;;;;;;;22.60;11.38;;;15.50;77.20;;;;;;5031710;28;20493;-66
2022/04/13 09:38:02;;;;;;;17.17;9.68;;;15.50;77.10;;;;;;5047609;28;20470;-65
2022/04/13 09:40:42;;;;;;;19.08;10.20;;;15.40;77.00;;;;;;5048006;28;20268;-67
2022/04/13 09:43:13;;;;;;;22.13;12.15;;;15.50;76.60;;;;;;5048366;28;20037;-65
2022/04/13 09:45:43;;;;;;;16.85;10.23;;;15.50;76.60;;;;;;5049275;28;20052;-65
2022/04/13 09:48:20;;;;;;;20.67;10.10;;;15.50;76.70;;;;;;5049477;28;20131;-66
2022/04/13 09:50:47;;;;;;;27.40;12.35;;;15.60;76.80;;;;;;5048896;28;20043;-64
2022/04/13 09:53:14;;;;;;;19.92;11.80;;;15.50;76.70;;;;;;5048751;28;20041;-64
2022/04/13 09:55:43;;;;;;;19.23;10.90;;;15.50;76.90;;;;;;5049254;28;20043;-67
2022/04/13 09:58:10;;;;;;;17.73;11.60;;;15.50;76.90;;;;;;5048524;28;20045;-66
2022/04/13 10:00:37;;;;;;;17.88;10.98;;;15.50;76.80;;;;;;5047510;28;20033;-65
2022/04/13 10:03:17;;;;;;;15.98;10.25;;;15.60;76.70;;;;;;5048926;28;20183;-66
2022/04/13 10:05:47;;;;;;;19.10;10.02;;;15.70;76.40;;;;;;5047638;28;20516;-65
2022/04/13 10:08:14;;;;;;;15.75;10.25;;;15.80;76.50;;;;;;5037890;28;20128;-65
2022/04/13 10:10:45;;;;;;;19.63;11.00;;;15.80;76.40;;;;;;5048941;28;20044;-65
2022/04/13 10:13:11;;;;;;;14.95;9.25;;;15.90;76.40;;;;;;5048643;28;20106;-65
2022/04/13 10:15:37;;;;;;;23.17;12.38;;;15.80;75.90;;;;;;5048417;28;20090;-64
2022/04/13 10:18:05;;;;;;;21.58;10.10;;;15.80;76.20;;;;;;5048572;28;20515;-64
2022/04/13 10:20:47;;;;;;;26.75;9.68;;;15.80;76.00;;;;;;5048427;28;20048;-64
2022/04/13 10:23:14;;;;;;;18.00;9.13;;;15.80;75.90;;;;;;5048024;28;20052;-64
2022/04/13 10:25:40;;;;;;;17.50;8.95;;;15.80;76.20;;;;;;5048065;28;20045;-64
2022/04/13 10:28:06;;;;;;;20.00;9.20;;;15.80;76.10;;;;;;5048436;28;20056;-64
2022/04/13 10:30:37;;;;;;;21.90;10.20;;;15.80;75.90;;;;;;5038390;28;20402;-63
2022/04/13 10:33:13;;;;;;;22.33;11.65;;;15.80;76.10;;;;;;5044461;28;20059;-63
2022/04/13 10:35:43;;;;;;;18.45;9.70;;;15.80;75.80;;;;;;5048651;28;20041;-63
2022/04/13 10:38:09;;;;;;;17.25;9.77;;;15.70;76.10;;;;;;5025413;28;20087;-63
2022/04/13 10:40:40;;;;;;;15.75;8.90;;;15.70;75.90;;;;;;5047360;28;20037;-64
2022/04/13 10:43:08;;;;;;;15.52;8.30;;;15.80;76.10;;;;;;5044865;28;20405;-64
2022/04/13 10:45:36;;;;;;;14.73;8.73;;;15.70;75.90;;;;;;5046344;28;20058;-64
2022/04/13 10:48:07;;;;;;;19.40;9.20;;;15.80;75.80;;;;;;5043741;28;20116;-65
2022/04/13 10:51:19;;;;;;;18.20;8.07;;;15.80;75.90;;;;;;5047871;28;20094;-64
2022/04/13 10:54:03;;;;;;;18.55;8.95;;;15.90;75.80;;;;;;5059402;28;20040;-63
2022/04/13 10:56:32;;;;;;;17.20;7.65;;;15.80;75.50;;;;;;5040185;28;20564;-63
2022/04/13 10:59:32;;;;;;;17.90;7.70;;;15.80;75.40;;;;;;5047496;28;20560;-63
2022/04/13 11:02:04;;;;;;;19.08;8.63;;;15.80;75.10;;;;;;5047550;28;20059;-63
2022/04/13 11:04:32;;;;;;;15.65;8.48;;;15.70;75.60;;;;;;5047522;28;20041;-64
2022/04/13 11:07:00;;;;;;;16.77;7.30;;;15.60;75.70;;;;;;5048166;28;20053;-64
2022/04/13 11:09:30;;;;;;;14.20;6.82;;;15.60;75.20;;;;;;5047494;28;20041;-64
2022/04/13 11:11:58;;;;;;;14.60;7.55;;;15.60;75.10;;;;;;5047459;28;20120;-64
2022/04/13 11:14:24;;;;;;;14.43;8.20;;;15.50;74.90;;;;;;5047686;28;20564;-63
2022/04/13 11:17:05;;;;;;;16.02;8.90;;;15.40;75.30;;;;;;5047922;28;20143;-63
2022/04/13 11:19:31;;;;;;;14.73;8.63;;;15.40;75.70;;;;;;5048223;28;20045;-64
2022/04/13 11:21:57;;;;;;;17.95;9.55;;;15.30;76.00;;;;;;5047472;28;20052;-63
2022/04/13 11:24:33;;;;;;;13.82;8.82;;;15.30;76.40;;;;;;5048042;28;20140;-64
2022/04/13 11:26:59;;;;;;;18.85;9.32;;;15.30;76.30;;;;;;5046664;28;20045;-63
2022/04/13 11:29:41;;;;;;;15.60;9.45;;;15.20;76.10;;;;;;5047596;28;20037;-64
2022/04/13 11:32:13;;;;;;;18.48;10.10;;;15.30;76.40;;;;;;5047518;28;20033;-64
2022/04/13 11:34:52;;;;;;;17.95;10.30;;;15.10;76.90;;;;;;5030473;28;20071;-64
2022/04/13 11:37:24;;;;;;;21.10;10.48;;;15.10;77.20;;;;;;5047757;28;20045;-64
2022/04/13 11:40:00;;;;;;;18.58;10.77;;;15.10;77.20;;;;;;5046721;28;20378;-64
2022/04/13 11:42:34;;;;;;;19.63;11.18;;;14.90;77.20;;;;;;5045399;28;20384;-63
2022/04/13 11:45:14;;;;;;;19.52;11.82;;;14.90;77.70;;;;;;5047151;28;20053;-64
2022/04/13 11:47:50;;;;;;;20.25;12.13;;;14.80;77.90;;;;;;5047207;28;20037;-64
2022/04/13 11:50:18;;;;;;;20.90;10.43;;;14.80;78.20;;;;;;5047486;28;20049;-64
2022/04/13 11:53:03;;;;;;;16.30;10.95;;;14.70;78.20;;;;;;5047286;28;20049;-63
2022/04/13 11:55:40;;;;;;;18.20;11.90;;;14.80;78.30;;;;;;5030022;28;20051;-63
2022/04/13 11:58:09;;;;;;;17.48;11.60;;;14.80;78.40;;;;;;5050088;28;20264;-64
2022/04/13 12:00:55;;;;;;;21.00;11.75;;;14.90;78.60;;;;;;5050608;28;20041;-64
2022/04/13 12:03:32;;;;;;;24.63;12.52;;;15.00;78.20;;;;;;5050235;28;20045;-64
2022/04/13 12:06:21;;;;;;;23.63;10.95;;;15.00;78.50;;;;;;5058930;28;20119;-63
2022/04/13 12:08:56;;;;;;;19.42;10.60;;;15.00;78.30;;;;;;5049918;28;20103;-63
2022/04/13 12:11:36;;;;;;;16.67;9.93;;;15.00;78.30;;;;;;5049856;28;20051;-63
2022/04/13 12:14:02;;;;;;;21.83;12.15;;;14.90;78.30;;;;;;5050814;28;20037;-64
2022/04/13 12:16:38;;;;;;;27.63;11.60;;;14.80;78.40;;;;;;5050205;28;20526;-64
2022/04/13 12:19:07;;;;;;;27.35;11.73;;;14.90;78.30;;;;;;5051052;28;20136;-64
2022/04/13 12:21:36;;;;;;;25.35;11.88;;;14.90;78.40;;;;;;5050975;28;20040;-63
2022/04/13 12:24:04;;;;;;;23.65;11.80;;;15.00;78.40;;;;;;5050999;28;20087;-64
2022/04/13 12:26:41;;;;;;;18.58;10.48;;;15.10;78.30;;;;;;5050898;28;20048;-63
2022/04/13 12:29:20;;;;;;;28.45;11.38;;;15.30;78.00;;;;;;5049765;28;20110;-64
2022/04/13 12:31:56;;;;;;;17.33;11.20;;;15.40;77.70;;;;;;5037408;28;20111;-64